Cherokee Falls, South Carolina
Current Conditions -  °F | °C
As of 12:35 PM on Saturday 25 Oct 2014 (Local Time) from KEHO Reporting Station
Clear Clear  
Wind Chill: 19°   Ceiling: Unl
Heat Index: 19°   Visibility: 10mi
Dew Point:   Wind: 3mph
Humidity: 32%   Direction: 270°W
Pressure: 30.03"   Gusts: NA
Location:  35.1147°N, 81.4908°W
Report Text: KEHO 251635Z AUTO 27003KT 10SM CLR 19/02 A3003 RMK AO2 T01910021
Loading
Personal Weather Stations






























Interactive Weather Map
Tropical Storm Tracking
New forecast layout! Learn more

10-Day Weather Forecast

Advertisements
Track Severe Weather on mobile